sensor_id;sensor_type;location;lat;lon;timestamp;P1;P2;P0
40569;PMS5003;26270;34.428;-119.710;2022-08-01T00:00:50;6;6;
40569;PMS5003;26270;34.428;-119.710;2022-08-01T00:03:18;7;7;
40569;PMS5003;26270;34.428;-119.710;2022-08-01T00:05:46;8;7;
40569;PMS5003;26270;34.428;-119.710;2022-08-01T00:08:15;8;8;
40569;PMS5003;26270;34.428;-119.710;2022-08-01T00:10:43;9;8;
40569;PMS5003;26270;34.428;-119.710;2022-08-01T00:13:11;7;7;
40569;PMS5003;26270;34.428;-119.710;2022-08-01T00:15:39;9;8;
40569;PMS5003;26270;34.428;-119.710;2022-08-01T00:18:07;6;6;
40569;PMS5003;26270;34.428;-119.710;2022-08-01T00:20:35;8;8;
40569;PMS5003;26270;34.428;-119.710;2022-08-01T00:23:03;9;9;
40569;PMS5003;26270;34.428;-119.710;2022-08-01T00:25:31;7;7;
40569;PMS5003;26270;34.428;-119.710;2022-08-01T00:27:59;8;8;
40569;PMS5003;26270;34.428;-119.710;2022-08-01T00:30:27;7;7;
40569;PMS5003;26270;34.428;-119.710;2022-08-01T00:32:55;6;6;
40569;PMS5003;26270;34.428;-119.710;2022-08-01T00:35:23;7;7;
40569;PMS5003;26270;34.428;-119.710;2022-08-01T00:37:53;6;6;
40569;PMS5003;26270;34.428;-119.710;2022-08-01T00:40:21;8;8;
40569;PMS5003;26270;34.428;-119.710;2022-08-01T00:42:55;7;7;
40569;PMS5003;26270;34.428;-119.710;2022-08-01T00:45:25;7;7;
40569;PMS5003;26270;34.428;-119.710;2022-08-01T00:47:53;7;7;
40569;PMS5003;26270;34.428;-119.710;2022-08-01T00:50:21;7;7;
40569;PMS5003;26270;34.428;-119.710;2022-08-01T00:52:50;8;8;
40569;PMS5003;26270;34.428;-119.710;2022-08-01T00:55:20;6;6;
40569;PMS5003;26270;34.428;-119.710;2022-08-01T00:57:49;5;5;
40569;PMS5003;26270;34.428;-119.710;2022-08-01T01:00:18;5;5;
40569;PMS5003;26270;34.428;-119.710;2022-08-01T01:02:46;6;6;
40569;PMS5003;26270;34.428;-119.710;2022-08-01T01:05:14;6;6;
40569;PMS5003;26270;34.428;-119.710;2022-08-01T01:07:44;8;8;
40569;PMS5003;26270;34.428;-119.710;2022-08-01T01:10:22;7;6;
40569;PMS5003;26270;34.428;-119.710;2022-08-01T01:13:02;5;5;
40569;PMS5003;26270;34.428;-119.710;2022-08-01T01:15:41;19;19;
40569;PMS5003;26270;34.428;-119.710;2022-08-01T01:18:14;18;16;
40569;PMS5003;26270;34.428;-119.710;2022-08-01T01:20:50;38;38;
40569;PMS5003;26270;34.428;-119.710;2022-08-01T01:23:29;7;7;
40569;PMS5003;26270;34.428;-119.710;2022-08-01T01:26:12;6;6;
40569;PMS5003;26270;34.428;-119.710;2022-08-01T01:28:57;7;7;
40569;PMS5003;26270;34.428;-119.710;2022-08-01T01:31:31;8;7;
40569;PMS5003;26270;34.428;-119.710;2022-08-01T01:34:07;6;6;
40569;PMS5003;26270;34.428;-119.710;2022-08-01T01:36:38;7;7;
40569;PMS5003;26270;34.428;-119.710;2022-08-01T01:39:09;7;6;
40569;PMS5003;26270;34.428;-119.710;2022-08-01T01:41:38;7;7;
40569;PMS5003;26270;34.428;-119.710;2022-08-01T01:44:07;7;6;
40569;PMS5003;26270;34.428;-119.710;2022-08-01T01:46:38;5;5;
40569;PMS5003;26270;34.428;-119.710;2022-08-01T01:49:08;6;6;
40569;PMS5003;26270;34.428;-119.710;2022-08-01T01:51:38;6;6;
40569;PMS5003;26270;34.428;-119.710;2022-08-01T01:54:08;7;7;
40569;PMS5003;26270;34.428;-119.710;2022-08-01T01:56:37;6;6;
40569;PMS5003;26270;34.428;-119.710;2022-08-01T01:59:09;7;6;
40569;PMS5003;26270;34.428;-119.710;2022-08-01T02:01:38;6;6;
40569;PMS5003;26270;34.428;-119.710;2022-08-01T02:04:07;7;7;
40569;PMS5003;26270;34.428;-119.710;2022-08-01T02:06:36;14;14;
40569;PMS5003;26270;34.428;-119.710;2022-08-01T02:09:06;22;21;
40569;PMS5003;26270;34.428;-119.710;2022-08-01T02:11:35;25;21;
40569;PMS5003;26270;34.428;-119.710;2022-08-01T02:14:05;12;12;
40569;PMS5003;26270;34.428;-119.710;2022-08-01T02:16:36;8;8;
40569;PMS5003;26270;34.428;-119.710;2022-08-01T02:19:07;7;6;
40569;PMS5003;26270;34.428;-119.710;2022-08-01T02:21:37;6;6;
40569;PMS5003;26270;34.428;-119.710;2022-08-01T02:24:13;5;5;
40569;PMS5003;26270;34.428;-119.710;2022-08-01T02:26:47;9;7;
40569;PMS5003;26270;34.428;-119.710;2022-08-01T02:29:21;7;6;
40569;PMS5003;26270;34.428;-119.710;2022-08-01T02:31:54;9;8;
40569;PMS5003;26270;34.428;-119.710;2022-08-01T02:34:24;8;8;
40569;PMS5003;26270;34.428;-119.710;2022-08-01T02:36:56;10;10;
40569;PMS5003;26270;34.428;-119.710;2022-08-01T02:39:25;9;8;
40569;PMS5003;26270;34.428;-119.710;2022-08-01T02:41:57;9;9;
40569;PMS5003;26270;34.428;-119.710;2022-08-01T02:44:31;8;8;
40569;PMS5003;26270;34.428;-119.710;2022-08-01T02:47:03;7;7;
40569;PMS5003;26270;34.428;-119.710;2022-08-01T02:49:33;9;9;
40569;PMS5003;26270;34.428;-119.710;2022-08-01T02:52:07;9;8;
40569;PMS5003;26270;34.428;-119.710;2022-08-01T02:54:39;10;10;
40569;PMS5003;26270;34.428;-119.710;2022-08-01T02:57:09;10;10;
40569;PMS5003;26270;34.428;-119.710;2022-08-01T02:59:40;7;7;
40569;PMS5003;26270;34.428;-119.710;2022-08-01T03:02:09;6;6;
40569;PMS5003;26270;34.428;-119.710;2022-08-01T03:04:40;7;7;
40569;PMS5003;26270;34.428;-119.710;2022-08-01T03:07:10;7;6;
40569;PMS5003;26270;34.428;-119.710;2022-08-01T03:09:40;7;7;
40569;PMS5003;26270;34.428;-119.710;2022-08-01T03:12:12;9;8;
40569;PMS5003;26270;34.428;-119.710;2022-08-01T03:14:43;10;9;
40569;PMS5003;26270;34.428;-119.710;2022-08-01T03:17:13;9;9;
40569;PMS5003;26270;34.428;-119.710;2022-08-01T03:19:43;6;6;
40569;PMS5003;26270;34.428;-119.710;2022-08-01T03:22:13;7;7;
40569;PMS5003;26270;34.428;-119.710;2022-08-01T03:24:42;10;7;
40569;PMS5003;26270;34.428;-119.710;2022-08-01T03:27:15;7;6;
40569;PMS5003;26270;34.428;-119.710;2022-08-01T03:29:45;6;6;
40569;PMS5003;26270;34.428;-119.710;2022-08-01T03:32:15;5;5;
40569;PMS5003;26270;34.428;-119.710;2022-08-01T03:34:45;7;7;
40569;PMS5003;26270;34.428;-119.710;2022-08-01T03:37:22;5;5;
40569;PMS5003;26270;34.428;-119.710;2022-08-01T03:39:58;10;7;
40569;PMS5003;26270;34.428;-119.710;2022-08-01T03:42:31;8;8;
40569;PMS5003;26270;34.428;-119.710;2022-08-01T03:45:02;10;9;
40569;PMS5003;26270;34.428;-119.710;2022-08-01T03:47:34;8;8;
40569;PMS5003;26270;34.428;-119.710;2022-08-01T03:50:04;9;9;
40569;PMS5003;26270;34.428;-119.710;2022-08-01T03:52:34;9;9;
40569;PMS5003;26270;34.428;-119.710;2022-08-01T03:55:07;8;7;
40569;PMS5003;26270;34.428;-119.710;2022-08-01T03:57:37;7;7;
40569;PMS5003;26270;34.428;-119.710;2022-08-01T04:03:18;7;6;
40569;PMS5003;26270;34.428;-119.710;2022-08-01T04:05:46;10;8;
40569;PMS5003;26270;34.428;-119.710;2022-08-01T04:08:14;10;10;
40569;PMS5003;26270;34.428;-119.710;2022-08-01T04:10:43;8;8;
40569;PMS5003;26270;34.428;-119.710;2022-08-01T04:13:11;9;9;
40569;PMS5003;26270;34.428;-119.710;2022-08-01T04:15:39;6;6;
40569;PMS5003;26270;34.428;-119.710;2022-08-01T04:18:08;8;8;
40569;PMS5003;26270;34.428;-119.710;2022-08-01T04:20:36;9;8;
40569;PMS5003;26270;34.428;-119.710;2022-08-01T04:23:04;6;6;
40569;PMS5003;26270;34.428;-119.710;2022-08-01T04:25:34;11;7;
40569;PMS5003;26270;34.428;-119.710;2022-08-01T04:28:04;8;8;
40569;PMS5003;26270;34.428;-119.710;2022-08-01T04:30:35;9;9;
40569;PMS5003;26270;34.428;-119.710;2022-08-01T04:33:04;12;10;
40569;PMS5003;26270;34.428;-119.710;2022-08-01T04:35:36;11;11;
40569;PMS5003;26270;34.428;-119.710;2022-08-01T04:38:08;10;8;
40569;PMS5003;26270;34.428;-119.710;2022-08-01T04:40:37;8;8;
40569;PMS5003;26270;34.428;-119.710;2022-08-01T04:43:06;9;8;
40569;PMS5003;26270;34.428;-119.710;2022-08-01T04:45:35;6;6;
40569;PMS5003;26270;34.428;-119.710;2022-08-01T04:48:04;7;7;
40569;PMS5003;26270;34.428;-119.710;2022-08-01T04:50:33;9;8;
40569;PMS5003;26270;34.428;-119.710;2022-08-01T04:53:02;7;7;
40569;PMS5003;26270;34.428;-119.710;2022-08-01T04:55:30;8;8;
40569;PMS5003;26270;34.428;-119.710;2022-08-01T04:57:58;9;9;
40569;PMS5003;26270;34.428;-119.710;2022-08-01T05:00:27;10;7;
40569;PMS5003;26270;34.428;-119.710;2022-08-01T05:02:55;10;10;
40569;PMS5003;26270;34.428;-119.710;2022-08-01T05:05:23;9;8;
40569;PMS5003;26270;34.428;-119.710;2022-08-01T05:07:51;7;7;
40569;PMS5003;26270;34.428;-119.710;2022-08-01T05:10:19;9;8;
40569;PMS5003;26270;34.428;-119.710;2022-08-01T05:12:47;8;8;
40569;PMS5003;26270;34.428;-119.710;2022-08-01T05:15:16;7;6;
40569;PMS5003;26270;34.428;-119.710;2022-08-01T05:17:44;9;9;
40569;PMS5003;26270;34.428;-119.710;2022-08-01T05:20:12;9;9;
40569;PMS5003;26270;34.428;-119.710;2022-08-01T05:22:40;10;8;
40569;PMS5003;26270;34.428;-119.710;2022-08-01T05:25:09;6;6;
40569;PMS5003;26270;34.428;-119.710;2022-08-01T05:27:37;11;9;
40569;PMS5003;26270;34.428;-119.710;2022-08-01T05:30:06;7;7;
40569;PMS5003;26270;34.428;-119.710;2022-08-01T05:32:35;8;8;
40569;PMS5003;26270;34.428;-119.710;2022-08-01T05:35:03;6;6;
40569;PMS5003;26270;34.428;-119.710;2022-08-01T05:37:32;9;8;
40569;PMS5003;26270;34.428;-119.710;2022-08-01T05:40:01;8;7;
40569;PMS5003;26270;34.428;-119.710;2022-08-01T05:42:30;6;6;
40569;PMS5003;26270;34.428;-119.710;2022-08-01T05:44:58;8;7;
40569;PMS5003;26270;34.428;-119.710;2022-08-01T05:47:26;6;6;
40569;PMS5003;26270;34.428;-119.710;2022-08-01T05:49:54;10;7;
40569;PMS5003;26270;34.428;-119.710;2022-08-01T05:52:22;10;8;
40569;PMS5003;26270;34.428;-119.710;2022-08-01T05:54:50;8;7;
40569;PMS5003;26270;34.428;-119.710;2022-08-01T05:57:19;7;7;
40569;PMS5003;26270;34.428;-119.710;2022-08-01T05:59:47;5;5;
40569;PMS5003;26270;34.428;-119.710;2022-08-01T06:02:15;8;7;
40569;PMS5003;26270;34.428;-119.710;2022-08-01T06:04:43;9;9;
40569;PMS5003;26270;34.428;-119.710;2022-08-01T06:07:12;6;6;
40569;PMS5003;26270;34.428;-119.710;2022-08-01T06:09:39;7;7;
40569;PMS5003;26270;34.428;-119.710;2022-08-01T06:12:08;7;7;
40569;PMS5003;26270;34.428;-119.710;2022-08-01T06:14:36;7;7;
40569;PMS5003;26270;34.428;-119.710;2022-08-01T06:17:04;8;8;
40569;PMS5003;26270;34.428;-119.710;2022-08-01T06:19:32;7;7;
40569;PMS5003;26270;34.428;-119.710;2022-08-01T06:22:01;9;6;
40569;PMS5003;26270;34.428;-119.710;2022-08-01T06:24:29;7;6;
40569;PMS5003;26270;34.428;-119.710;2022-08-01T06:26:57;8;7;
40569;PMS5003;26270;34.428;-119.710;2022-08-01T06:29:25;8;6;
40569;PMS5003;26270;34.428;-119.710;2022-08-01T06:31:54;6;5;
40569;PMS5003;26270;34.428;-119.710;2022-08-01T06:34:22;7;6;
40569;PMS5003;26270;34.428;-119.710;2022-08-01T06:36:50;7;7;
40569;PMS5003;26270;34.428;-119.710;2022-08-01T06:39:18;7;7;
40569;PMS5003;26270;34.428;-119.710;2022-08-01T06:41:46;4;4;
40569;PMS5003;26270;34.428;-119.710;2022-08-01T06:44:15;7;6;
40569;PMS5003;26270;34.428;-119.710;2022-08-01T06:46:43;6;6;
40569;PMS5003;26270;34.428;-119.710;2022-08-01T06:49:11;9;9;
40569;PMS5003;26270;34.428;-119.710;2022-08-01T06:51:39;6;6;
40569;PMS5003;26270;34.428;-119.710;2022-08-01T06:54:07;8;8;
40569;PMS5003;26270;34.428;-119.710;2022-08-01T06:56:36;8;6;
40569;PMS5003;26270;34.428;-119.710;2022-08-01T06:59:04;7;7;
40569;PMS5003;26270;34.428;-119.710;2022-08-01T07:01:32;7;7;
40569;PMS5003;26270;34.428;-119.710;2022-08-01T07:04:01;7;6;
40569;PMS5003;26270;34.428;-119.710;2022-08-01T07:06:29;5;5;
40569;PMS5003;26270;34.428;-119.710;2022-08-01T07:08:57;4;4;
40569;PMS5003;26270;34.428;-119.710;2022-08-01T07:11:25;6;6;
40569;PMS5003;26270;34.428;-119.710;2022-08-01T07:13:54;5;5;
40569;PMS5003;26270;34.428;-119.710;2022-08-01T07:16:21;7;7;
40569;PMS5003;26270;34.428;-119.710;2022-08-01T07:18:50;6;5;
40569;PMS5003;26270;34.428;-119.710;2022-08-01T07:21:18;10;7;
40569;PMS5003;26270;34.428;-119.710;2022-08-01T07:23:46;5;5;
40569;PMS5003;26270;34.428;-119.710;2022-08-01T07:26:14;8;8;
40569;PMS5003;26270;34.428;-119.710;2022-08-01T07:28:42;5;5;
40569;PMS5003;26270;34.428;-119.710;2022-08-01T07:31:10;5;5;
40569;PMS5003;26270;34.428;-119.710;2022-08-01T07:33:39;5;5;
40569;PMS5003;26270;34.428;-119.710;2022-08-01T07:36:07;6;6;
40569;PMS5003;26270;34.428;-119.710;2022-08-01T07:38:35;5;5;
40569;PMS5003;26270;34.428;-119.710;2022-08-01T07:41:04;6;5;
40569;PMS5003;26270;34.428;-119.710;2022-08-01T07:43:32;8;7;
40569;PMS5003;26270;34.428;-119.710;2022-08-01T07:46:00;6;6;
40569;PMS5003;26270;34.428;-119.710;2022-08-01T07:48:28;5;5;
40569;PMS5003;26270;34.428;-119.710;2022-08-01T07:50:56;7;6;
40569;PMS5003;26270;34.428;-119.710;2022-08-01T07:53:24;6;6;
40569;PMS5003;26270;34.428;-119.710;2022-08-01T07:55:52;6;6;
40569;PMS5003;26270;34.428;-119.710;2022-08-01T07:58:21;5;5;
40569;PMS5003;26270;34.428;-119.710;2022-08-01T08:00:49;5;5;
40569;PMS5003;26270;34.428;-119.710;2022-08-01T08:03:17;7;7;
40569;PMS5003;26270;34.428;-119.710;2022-08-01T08:05:46;8;7;
40569;PMS5003;26270;34.428;-119.710;2022-08-01T08:08:14;5;5;
40569;PMS5003;26270;34.428;-119.710;2022-08-01T08:10:43;4;4;
40569;PMS5003;26270;34.428;-119.710;2022-08-01T08:13:11;5;5;
40569;PMS5003;26270;34.428;-119.710;2022-08-01T08:15:39;6;5;
40569;PMS5003;26270;34.428;-119.710;2022-08-01T08:18:08;4;4;
40569;PMS5003;26270;34.428;-119.710;2022-08-01T08:20:36;7;7;
40569;PMS5003;26270;34.428;-119.710;2022-08-01T08:23:04;6;6;
40569;PMS5003;26270;34.428;-119.710;2022-08-01T08:25:32;5;5;
40569;PMS5003;26270;34.428;-119.710;2022-08-01T08:28:01;7;6;
40569;PMS5003;26270;34.428;-119.710;2022-08-01T08:30:30;6;5;
40569;PMS5003;26270;34.428;-119.710;2022-08-01T08:32:58;7;6;
40569;PMS5003;26270;34.428;-119.710;2022-08-01T08:35:26;6;6;
40569;PMS5003;26270;34.428;-119.710;2022-08-01T08:37:54;6;6;
40569;PMS5003;26270;34.428;-119.710;2022-08-01T08:40:22;6;6;
40569;PMS5003;26270;34.428;-119.710;2022-08-01T08:42:57;5;5;
40569;PMS5003;26270;34.428;-119.710;2022-08-01T08:45:27;5;5;
40569;PMS5003;26270;34.428;-119.710;2022-08-01T08:47:55;6;6;
40569;PMS5003;26270;34.428;-119.710;2022-08-01T08:50:23;5;5;
40569;PMS5003;26270;34.428;-119.710;2022-08-01T08:52:53;5;5;
40569;PMS5003;26270;34.428;-119.710;2022-08-01T08:55:22;6;6;
40569;PMS5003;26270;34.428;-119.710;2022-08-01T08:57:51;7;6;
40569;PMS5003;26270;34.428;-119.710;2022-08-01T09:00:20;8;8;
40569;PMS5003;26270;34.428;-119.710;2022-08-01T09:02:49;9;8;
40569;PMS5003;26270;34.428;-119.710;2022-08-01T09:05:17;8;8;
40569;PMS5003;26270;34.428;-119.710;2022-08-01T09:07:45;6;6;
40569;PMS5003;26270;34.428;-119.710;2022-08-01T09:10:13;8;7;
40569;PMS5003;26270;34.428;-119.710;2022-08-01T09:13:01;8;7;
40569;PMS5003;26270;34.428;-119.710;2022-08-01T09:15:39;10;9;
40569;PMS5003;26270;34.428;-119.710;2022-08-01T09:18:25;8;7;
40569;PMS5003;26270;34.428;-119.710;2022-08-01T09:21:17;11;10;
40569;PMS5003;26270;34.428;-119.710;2022-08-01T09:23:46;10;10;
40569;PMS5003;26270;34.428;-119.710;2022-08-01T09:26:17;8;8;
40569;PMS5003;26270;34.428;-119.710;2022-08-01T09:28:47;9;8;
40569;PMS5003;26270;34.428;-119.710;2022-08-01T09:31:16;10;10;
40569;PMS5003;26270;34.428;-119.710;2022-08-01T09:33:47;9;9;
40569;PMS5003;26270;34.428;-119.710;2022-08-01T09:36:17;8;7;
40569;PMS5003;26270;34.428;-119.710;2022-08-01T09:38:47;8;7;
40569;PMS5003;26270;34.428;-119.710;2022-08-01T09:41:16;8;8;
40569;PMS5003;26270;34.428;-119.710;2022-08-01T09:43:47;8;8;
40569;PMS5003;26270;34.428;-119.710;2022-08-01T09:46:16;8;8;
40569;PMS5003;26270;34.428;-119.710;2022-08-01T09:49:00;8;8;
40569;PMS5003;26270;34.428;-119.710;2022-08-01T09:51:31;9;9;
40569;PMS5003;26270;34.428;-119.710;2022-08-01T09:54:00;8;7;
40569;PMS5003;26270;34.428;-119.710;2022-08-01T09:56:35;9;9;
40569;PMS5003;26270;34.428;-119.710;2022-08-01T09:59:05;8;8;
40569;PMS5003;26270;34.428;-119.710;2022-08-01T10:01:49;6;6;
40569;PMS5003;26270;34.428;-119.710;2022-08-01T10:04:18;10;9;
40569;PMS5003;26270;34.428;-119.710;2022-08-01T10:06:48;10;9;
40569;PMS5003;26270;34.428;-119.710;2022-08-01T10:09:25;10;8;
40569;PMS5003;26270;34.428;-119.710;2022-08-01T10:11:55;8;7;
40569;PMS5003;26270;34.428;-119.710;2022-08-01T10:14:23;8;7;
40569;PMS5003;26270;34.428;-119.710;2022-08-01T10:16:53;6;5;
40569;PMS5003;26270;34.428;-119.710;2022-08-01T10:19:25;9;9;
40569;PMS5003;26270;34.428;-119.710;2022-08-01T10:21:54;7;7;
40569;PMS5003;26270;34.428;-119.710;2022-08-01T10:24:24;8;8;
40569;PMS5003;26270;34.428;-119.710;2022-08-01T10:26:55;7;7;
40569;PMS5003;26270;34.428;-119.710;2022-08-01T10:29:25;10;9;
40569;PMS5003;26270;34.428;-119.710;2022-08-01T10:31:54;11;10;
40569;PMS5003;26270;34.428;-119.710;2022-08-01T10:34:22;10;10;
40569;PMS5003;26270;34.428;-119.710;2022-08-01T10:36:51;8;8;
40569;PMS5003;26270;34.428;-119.710;2022-08-01T10:39:20;8;8;
40569;PMS5003;26270;34.428;-119.710;2022-08-01T10:41:48;8;8;
40569;PMS5003;26270;34.428;-119.710;2022-08-01T10:44:16;8;8;
40569;PMS5003;26270;34.428;-119.710;2022-08-01T10:46:46;10;7;
40569;PMS5003;26270;34.428;-119.710;2022-08-01T10:49:20;9;8;
40569;PMS5003;26270;34.428;-119.710;2022-08-01T10:51:53;10;10;
40569;PMS5003;26270;34.428;-119.710;2022-08-01T10:54:24;8;8;
40569;PMS5003;26270;34.428;-119.710;2022-08-01T10:56:53;11;11;
40569;PMS5003;26270;34.428;-119.710;2022-08-01T10:59:21;11;11;
40569;PMS5003;26270;34.428;-119.710;2022-08-01T11:01:59;11;9;
40569;PMS5003;26270;34.428;-119.710;2022-08-01T11:04:33;10;10;
40569;PMS5003;26270;34.428;-119.710;2022-08-01T11:07:11;7;7;
40569;PMS5003;26270;34.428;-119.710;2022-08-01T11:09:44;9;9;
40569;PMS5003;26270;34.428;-119.710;2022-08-01T11:12:13;10;10;
40569;PMS5003;26270;34.428;-119.710;2022-08-01T11:15:47;10;10;
40569;PMS5003;26270;34.428;-119.710;2022-08-01T11:18:32;9;9;
40569;PMS5003;26270;34.428;-119.710;2022-08-01T11:21:01;12;11;
40569;PMS5003;26270;34.428;-119.710;2022-08-01T11:23:29;9;9;
40569;PMS5003;26270;34.428;-119.710;2022-08-01T11:26:06;12;12;
40569;PMS5003;26270;34.428;-119.710;2022-08-01T11:28:40;10;9;
40569;PMS5003;26270;34.428;-119.710;2022-08-01T11:31:26;10;10;
40569;PMS5003;26270;34.428;-119.710;2022-08-01T11:33:57;10;10;
40569;PMS5003;26270;34.428;-119.710;2022-08-01T11:36:27;11;11;
40569;PMS5003;26270;34.428;-119.710;2022-08-01T11:39:12;12;10;
40569;PMS5003;26270;34.428;-119.710;2022-08-01T11:41:43;9;9;
40569;PMS5003;26270;34.428;-119.710;2022-08-01T11:44:13;11;11;
40569;PMS5003;26270;34.428;-119.710;2022-08-01T11:46:58;9;9;
40569;PMS5003;26270;34.428;-119.710;2022-08-01T11:49:31;11;11;
40569;PMS5003;26270;34.428;-119.710;2022-08-01T11:52:12;13;12;
40569;PMS5003;26270;34.428;-119.710;2022-08-01T11:54:42;10;10;
40569;PMS5003;26270;34.428;-119.710;2022-08-01T11:57:13;10;10;
40569;PMS5003;26270;34.428;-119.710;2022-08-01T11:59:45;12;10;
40569;PMS5003;26270;34.428;-119.710;2022-08-01T12:02:15;11;11;
40569;PMS5003;26270;34.428;-119.710;2022-08-01T12:04:47;12;12;
40569;PMS5003;26270;34.428;-119.710;2022-08-01T12:07:18;12;10;
40569;PMS5003;26270;34.428;-119.710;2022-08-01T12:09:47;13;13;
40569;PMS5003;26270;34.428;-119.710;2022-08-01T12:12:23;12;12;
40569;PMS5003;26270;34.428;-119.710;2022-08-01T12:14:53;13;12;
40569;PMS5003;26270;34.428;-119.710;2022-08-01T12:17:30;11;10;
40569;PMS5003;26270;34.428;-119.710;2022-08-01T12:20:00;13;12;
40569;PMS5003;26270;34.428;-119.710;2022-08-01T12:22:30;13;12;
40569;PMS5003;26270;34.428;-119.710;2022-08-01T12:25:04;14;14;
40569;PMS5003;26270;34.428;-119.710;2022-08-01T12:27:34;14;13;
40569;PMS5003;26270;34.428;-119.710;2022-08-01T12:30:05;14;11;
40569;PMS5003;26270;34.428;-119.710;2022-08-01T12:32:35;17;14;
40569;PMS5003;26270;34.428;-119.710;2022-08-01T12:35:05;16;13;
40569;PMS5003;26270;34.428;-119.710;2022-08-01T12:37:35;13;12;
40569;PMS5003;26270;34.428;-119.710;2022-08-01T12:40:11;13;13;
40569;PMS5003;26270;34.428;-119.710;2022-08-01T12:42:42;11;10;
40569;PMS5003;26270;34.428;-119.710;2022-08-01T12:45:12;14;13;
40569;PMS5003;26270;34.428;-119.710;2022-08-01T12:47:42;13;12;
40569;PMS5003;26270;34.428;-119.710;2022-08-01T12:50:12;11;11;
40569;PMS5003;26270;34.428;-119.710;2022-08-01T12:52:41;10;10;
40569;PMS5003;26270;34.428;-119.710;2022-08-01T12:55:11;12;10;
40569;PMS5003;26270;34.428;-119.710;2022-08-01T12:57:41;8;8;
40569;PMS5003;26270;34.428;-119.710;2022-08-01T13:00:13;7;7;
40569;PMS5003;26270;34.428;-119.710;2022-08-01T13:02:44;7;7;
40569;PMS5003;26270;34.428;-119.710;2022-08-01T13:05:14;11;10;
40569;PMS5003;26270;34.428;-119.710;2022-08-01T13:07:44;14;12;
40569;PMS5003;26270;34.428;-119.710;2022-08-01T13:10:23;15;15;
40569;PMS5003;26270;34.428;-119.710;2022-08-01T13:12:54;15;14;
40569;PMS5003;26270;34.428;-119.710;2022-08-01T13:15:25;13;11;
40569;PMS5003;26270;34.428;-119.710;2022-08-01T13:17:56;16;14;
40569;PMS5003;26270;34.428;-119.710;2022-08-01T13:20:26;15;15;
40569;PMS5003;26270;34.428;-119.710;2022-08-01T13:22:57;13;13;
40569;PMS5003;26270;34.428;-119.710;2022-08-01T13:25:49;12;11;
40569;PMS5003;26270;34.428;-119.710;2022-08-01T13:28:21;13;12;
40569;PMS5003;26270;34.428;-119.710;2022-08-01T13:30:52;14;10;
40569;PMS5003;26270;34.428;-119.710;2022-08-01T13:33:23;14;13;
40569;PMS5003;26270;34.428;-119.710;2022-08-01T13:35:52;11;11;
40569;PMS5003;26270;34.428;-119.710;2022-08-01T13:38:22;12;12;
40569;PMS5003;26270;34.428;-119.710;2022-08-01T13:40:50;13;13;
40569;PMS5003;26270;34.428;-119.710;2022-08-01T13:43:25;13;12;
40569;PMS5003;26270;34.428;-119.710;2022-08-01T13:45:53;10;10;
40569;PMS5003;26270;34.428;-119.710;2022-08-01T13:48:21;14;14;
40569;PMS5003;26270;34.428;-119.710;2022-08-01T13:50:50;13;13;
40569;PMS5003;26270;34.428;-119.710;2022-08-01T13:53:18;14;12;
40569;PMS5003;26270;34.428;-119.710;2022-08-01T13:55:45;13;11;
40569;PMS5003;26270;34.428;-119.710;2022-08-01T13:58:14;13;12;
40569;PMS5003;26270;34.428;-119.710;2022-08-01T14:00:42;10;10;
40569;PMS5003;26270;34.428;-119.710;2022-08-01T14:03:10;13;11;
40569;PMS5003;26270;34.428;-119.710;2022-08-01T14:05:39;10;9;
40569;PMS5003;26270;34.428;-119.710;2022-08-01T14:08:07;10;10;
40569;PMS5003;26270;34.428;-119.710;2022-08-01T14:10:36;12;10;
40569;PMS5003;26270;34.428;-119.710;2022-08-01T14:13:04;11;11;
40569;PMS5003;26270;34.428;-119.710;2022-08-01T14:15:32;15;10;
40569;PMS5003;26270;34.428;-119.710;2022-08-01T14:18:01;12;12;
40569;PMS5003;26270;34.428;-119.710;2022-08-01T14:20:29;11;11;
40569;PMS5003;26270;34.428;-119.710;2022-08-01T14:22:57;10;10;
40569;PMS5003;26270;34.428;-119.710;2022-08-01T14:25:25;13;11;
40569;PMS5003;26270;34.428;-119.710;2022-08-01T14:27:54;9;9;
40569;PMS5003;26270;34.428;-119.710;2022-08-01T14:30:22;10;10;
40569;PMS5003;26270;34.428;-119.710;2022-08-01T14:32:51;10;10;
40569;PMS5003;26270;34.428;-119.710;2022-08-01T14:35:18;10;10;
40569;PMS5003;26270;34.428;-119.710;2022-08-01T14:37:46;10;10;
40569;PMS5003;26270;34.428;-119.710;2022-08-01T14:40:14;12;11;
40569;PMS5003;26270;34.428;-119.710;2022-08-01T14:42:43;11;10;
40569;PMS5003;26270;34.428;-119.710;2022-08-01T14:45:11;11;10;
40569;PMS5003;26270;34.428;-119.710;2022-08-01T14:47:41;11;10;
40569;PMS5003;26270;34.428;-119.710;2022-08-01T14:50:11;10;9;
40569;PMS5003;26270;34.428;-119.710;2022-08-01T14:52:40;12;12;
40569;PMS5003;26270;34.428;-119.710;2022-08-01T14:55:10;11;9;
40569;PMS5003;26270;34.428;-119.710;2022-08-01T14:57:39;13;12;
40569;PMS5003;26270;34.428;-119.710;2022-08-01T15:00:08;10;10;
40569;PMS5003;26270;34.428;-119.710;2022-08-01T15:02:37;12;11;
40569;PMS5003;26270;34.428;-119.710;2022-08-01T15:05:06;11;10;
40569;PMS5003;26270;34.428;-119.710;2022-08-01T15:07:35;10;10;
40569;PMS5003;26270;34.428;-119.710;2022-08-01T15:10:04;11;11;
40569;PMS5003;26270;34.428;-119.710;2022-08-01T15:12:33;11;10;
40569;PMS5003;26270;34.428;-119.710;2022-08-01T15:15:01;10;10;
40569;PMS5003;26270;34.428;-119.710;2022-08-01T15:17:31;12;9;
40569;PMS5003;26270;34.428;-119.710;2022-08-01T15:19:59;11;9;
40569;PMS5003;26270;34.428;-119.710;2022-08-01T15:22:30;10;9;
40569;PMS5003;26270;34.428;-119.710;2022-08-01T15:24:59;10;10;
40569;PMS5003;26270;34.428;-119.710;2022-08-01T15:27:28;13;12;
40569;PMS5003;26270;34.428;-119.710;2022-08-01T15:29:56;10;10;
40569;PMS5003;26270;34.428;-119.710;2022-08-01T15:32:24;12;12;
40569;PMS5003;26270;34.428;-119.710;2022-08-01T15:34:52;12;12;
40569;PMS5003;26270;34.428;-119.710;2022-08-01T15:37:21;9;9;
40569;PMS5003;26270;34.428;-119.710;2022-08-01T15:39:49;9;9;
40569;PMS5003;26270;34.428;-119.710;2022-08-01T15:42:18;12;12;
40569;PMS5003;26270;34.428;-119.710;2022-08-01T15:44:46;10;10;
40569;PMS5003;26270;34.428;-119.710;2022-08-01T15:47:14;10;10;
40569;PMS5003;26270;34.428;-119.710;2022-08-01T15:49:42;9;9;
40569;PMS5003;26270;34.428;-119.710;2022-08-01T15:52:11;10;10;
40569;PMS5003;26270;34.428;-119.710;2022-08-01T15:54:39;12;11;
40569;PMS5003;26270;34.428;-119.710;2022-08-01T15:57:07;11;11;
40569;PMS5003;26270;34.428;-119.710;2022-08-01T15:59:35;11;10;
40569;PMS5003;26270;34.428;-119.710;2022-08-01T16:02:03;12;12;
40569;PMS5003;26270;34.428;-119.710;2022-08-01T16:04:31;11;11;
40569;PMS5003;26270;34.428;-119.710;2022-08-01T16:06:59;12;12;
40569;PMS5003;26270;34.428;-119.710;2022-08-01T16:09:28;11;11;
40569;PMS5003;26270;34.428;-119.710;2022-08-01T16:11:56;11;11;